createdAt,value
2024-02-13T00:00:30.550Z,19.85
2024-02-13T00:02:33.746Z,20.67
2024-02-13T00:04:36.628Z,22.20
2024-02-13T00:06:39.702Z,20.55
2024-02-13T00:08:45.824Z,20.13
2024-02-13T00:10:53.674Z,20.85
2024-02-13T00:13:02.012Z,21.20
2024-02-13T00:15:05.766Z,21.75
2024-02-13T00:17:09.853Z,19.88
2024-02-13T00:19:13.912Z,23.30
2024-02-13T00:21:17.035Z,26.25
2024-02-13T00:23:20.061Z,28.63
2024-02-13T00:25:23.136Z,24.90
2024-02-13T00:27:26.853Z,22.77
2024-02-13T00:29:31.242Z,24.73
2024-02-13T00:31:37.871Z,25.42
2024-02-13T00:34:00.831Z,20.70
2024-02-13T00:36:04.154Z,27.27
2024-02-13T00:38:07.803Z,21.27
2024-02-13T00:40:11.837Z,18.60
2024-02-13T00:42:14.966Z,21.30
2024-02-13T00:44:18.292Z,20.63
2024-02-13T00:46:23.099Z,23.13
2024-02-13T00:48:28.237Z,27.02
2024-02-13T00:50:31.323Z,23.85
2024-02-13T00:52:35.383Z,21.80
2024-02-13T00:54:38.355Z,24.25
2024-02-13T00:56:41.968Z,23.27
2024-02-13T00:58:47.306Z,22.80
2024-02-13T01:00:50.655Z,21.45
2024-02-13T01:02:57.127Z,20.13
2024-02-13T01:05:00.217Z,18.52
2024-02-13T01:07:03.161Z,19.63
2024-02-13T01:09:06.797Z,23.85
2024-02-13T01:11:09.822Z,26.92
2024-02-13T01:13:13.546Z,29.88
2024-02-13T01:15:16.644Z,30.33
2024-02-13T01:17:19.776Z,32.67
2024-02-13T01:19:24.395Z,27.42
2024-02-13T01:21:27.613Z,32.13
2024-02-13T01:23:30.565Z,31.48
2024-02-13T01:25:33.583Z,28.70
2024-02-13T01:27:36.586Z,24.63
2024-02-13T01:29:39.662Z,23.52
2024-02-13T01:31:43.173Z,21.25
2024-02-13T01:33:46.496Z,19.10
2024-02-13T01:35:51.577Z,18.73
2024-02-13T01:37:54.775Z,21.60
2024-02-13T01:39:57.735Z,22.25
2024-02-13T01:42:00.793Z,23.58
2024-02-13T01:44:05.192Z,20.02
2024-02-13T01:46:09.956Z,24.25
2024-02-13T01:48:16.064Z,21.95
2024-02-13T01:50:19.817Z,22.20
2024-02-13T01:52:25.076Z,22.52
2024-02-13T01:54:28.465Z,24.05
2024-02-13T01:56:33.188Z,22.60
2024-02-13T01:58:37.733Z,22.95
2024-02-13T02:00:40.869Z,22.77
2024-02-13T02:02:45.475Z,21.00
2024-02-13T02:04:50.245Z,18.83
2024-02-13T02:06:53.479Z,22.17
2024-02-13T02:08:58.237Z,23.70
2024-02-13T02:11:01.347Z,20.98
2024-02-13T02:13:04.493Z,19.30
2024-02-13T02:15:12.359Z,23.63
2024-02-13T02:17:15.674Z,22.90
2024-02-13T02:19:18.905Z,21.02
2024-02-13T02:21:22.068Z,27.38
2024-02-13T02:23:25.547Z,24.08
2024-02-13T02:25:37.443Z,26.75
2024-02-13T02:28:00.319Z,24.35
2024-02-13T02:30:03.315Z,22.23
2024-02-13T02:32:10.142Z,23.48
2024-02-13T02:34:16.269Z,17.83
2024-02-13T02:36:20.974Z,20.52
2024-02-13T02:38:24.310Z,21.92
2024-02-13T02:40:27.761Z,22.83
2024-02-13T02:42:32.095Z,20.45
2024-02-13T02:44:37.176Z,22.05
2024-02-13T02:46:40.345Z,19.65
2024-02-13T02:48:43.334Z,17.20
2024-02-13T02:50:46.402Z,21.75
2024-02-13T02:52:49.623Z,26.58
2024-02-13T02:54:52.494Z,19.38
2024-02-13T02:56:55.595Z,19.42
2024-02-13T02:59:00.025Z,17.73
2024-02-13T03:01:03.640Z,22.80
2024-02-13T03:03:07.144Z,22.05
2024-02-13T03:05:10.923Z,18.67
2024-02-13T03:07:13.883Z,27.75
2024-02-13T03:09:16.860Z,26.92
2024-02-13T03:11:20.098Z,22.42
2024-02-13T03:13:23.336Z,21.77
2024-02-13T03:15:28.630Z,23.23
2024-02-13T03:17:33.190Z,21.98
2024-02-13T03:19:36.128Z,18.23
2024-02-13T03:21:39.166Z,24.15
2024-02-13T03:23:44.665Z,23.33
2024-02-13T03:25:47.590Z,23.42
2024-02-13T03:28:10.387Z,27.75
2024-02-13T03:30:14.757Z,28.88
2024-02-13T03:32:19.624Z,29.77
2024-02-13T03:34:23.019Z,27.02
2024-02-13T03:36:25.989Z,25.52
2024-02-13T03:38:28.968Z,27.92
2024-02-13T03:40:31.874Z,27.73
2024-02-13T03:42:35.314Z,31.65
2024-02-13T03:44:41.012Z,26.58
2024-02-13T03:46:45.077Z,32.15
2024-02-13T03:48:49.582Z,32.08
2024-02-13T03:50:52.656Z,31.40
2024-02-13T03:52:55.564Z,28.70
2024-02-13T03:54:58.975Z,31.80
2024-02-13T03:57:02.606Z,24.80
2024-02-13T03:59:05.652Z,31.92
2024-02-13T04:01:10.152Z,23.30
2024-02-13T04:03:13.414Z,24.77
2024-02-13T04:05:17.836Z,20.52
2024-02-13T04:07:20.953Z,16.63
2024-02-13T04:09:23.890Z,19.58
2024-02-13T04:11:26.880Z,20.05
2024-02-13T04:13:29.853Z,20.42
2024-02-13T04:15:32.913Z,18.98
2024-02-13T04:17:37.126Z,15.95
2024-02-13T04:19:40.825Z,15.65
2024-02-13T04:21:46.271Z,15.57
2024-02-13T04:23:50.520Z,17.98
2024-02-13T04:25:53.474Z,17.20
2024-02-13T04:27:56.454Z,14.88
2024-02-13T04:29:59.430Z,20.45
2024-02-13T04:32:03.078Z,21.10
2024-02-13T04:34:07.962Z,13.77
2024-02-13T04:36:11.593Z,17.23
2024-02-13T04:38:15.995Z,15.77
2024-02-13T04:40:19.890Z,15.50
2024-02-13T04:42:42.791Z,19.17
2024-02-13T04:44:45.803Z,19.83
2024-02-13T04:46:48.727Z,20.23
2024-02-13T04:48:52.458Z,17.08
2024-02-13T04:50:55.485Z,19.00
2024-02-13T04:52:58.675Z,20.92
2024-02-13T04:55:03.326Z,23.77
2024-02-13T04:57:08.270Z,24.70
2024-02-13T04:59:16.603Z,18.05
2024-02-13T05:01:19.668Z,21.15
2024-02-13T05:03:41.013Z,19.13
2024-02-13T05:06:03.122Z,19.27
2024-02-13T05:08:08.305Z,17.92
2024-02-13T05:10:13.824Z,16.75
2024-02-13T05:12:37.174Z,20.73
2024-02-13T05:14:40.449Z,18.73
2024-02-13T05:16:45.318Z,18.83
2024-02-13T05:18:48.469Z,19.17
2024-02-13T05:20:51.786Z,20.60
2024-02-13T05:22:55.131Z,19.40
2024-02-13T05:24:57.950Z,18.85
2024-02-13T05:27:02.560Z,17.58
2024-02-13T05:29:06.363Z,19.85
2024-02-13T05:31:09.462Z,18.40
2024-02-13T05:33:13.467Z,20.13
2024-02-13T05:35:16.928Z,18.33
2024-02-13T05:37:22.239Z,17.80
2024-02-13T05:39:25.209Z,17.42
2024-02-13T05:41:28.168Z,21.27
2024-02-13T05:43:32.624Z,24.27
2024-02-13T05:45:36.100Z,17.90
2024-02-13T05:47:39.476Z,16.67
2024-02-13T05:49:45.708Z,17.73
2024-02-13T05:51:49.693Z,19.90
2024-02-13T05:53:52.915Z,17.83
2024-02-13T05:55:55.982Z,17.95
2024-02-13T05:57:59.688Z,16.45
2024-02-13T06:00:04.684Z,16.80
2024-02-13T06:02:15.920Z,18.60
2024-02-13T06:04:19.594Z,21.08
2024-02-13T06:06:28.484Z,19.13
2024-02-13T06:08:31.624Z,17.13
2024-02-13T06:10:35.976Z,26.60
2024-02-13T06:12:40.247Z,19.63
2024-02-13T06:14:44.076Z,19.45
2024-02-13T06:16:48.654Z,18.00
2024-02-13T06:18:56.780Z,17.60
2024-02-13T06:21:01.557Z,19.90
2024-02-13T06:23:05.209Z,16.00
2024-02-13T06:25:12.650Z,18.60
2024-02-13T06:27:16.276Z,15.27
2024-02-13T06:29:20.316Z,19.95
2024-02-13T06:31:23.704Z,17.42
2024-02-13T06:33:28.290Z,17.40
2024-02-13T06:35:31.780Z,16.73
2024-02-13T06:37:49.566Z,20.77
2024-02-13T06:39:52.790Z,20.52
2024-02-13T06:41:55.868Z,20.85
2024-02-13T06:43:59.110Z,19.67
2024-02-13T06:46:02.193Z,19.77
2024-02-13T06:48:05.529Z,16.48
2024-02-13T06:50:14.628Z,15.32
2024-02-13T06:52:17.559Z,15.00
2024-02-13T06:54:21.595Z,16.13
2024-02-13T06:56:24.657Z,12.43
2024-02-13T06:58:27.756Z,14.68
2024-02-13T07:00:32.054Z,12.75
2024-02-13T07:02:36.614Z,12.87
2024-02-13T07:04:39.739Z,12.82
2024-02-13T07:06:55.367Z,13.32
2024-02-13T07:09:11.003Z,13.15
2024-02-13T07:11:14.111Z,14.85
2024-02-13T07:13:27.658Z,17.23
2024-02-13T07:15:30.718Z,5.97
2024-02-13T07:17:44.713Z,12.48
2024-02-13T07:19:56.118Z,16.98
2024-02-13T07:22:00.567Z,21.15
2024-02-13T07:24:03.985Z,18.13
2024-02-13T07:26:06.941Z,14.77
2024-02-13T07:28:10.481Z,15.20
2024-02-13T07:30:14.627Z,13.43
2024-02-13T07:32:18.924Z,18.67
2024-02-13T07:34:22.033Z,21.23
2024-02-13T07:36:25.176Z,18.45
2024-02-13T07:38:29.702Z,23.00
2024-02-13T07:40:32.774Z,26.47
2024-02-13T07:42:35.618Z,17.40
2024-02-13T07:44:38.653Z,19.38
2024-02-13T07:46:41.862Z,14.38
2024-02-13T07:48:45.020Z,22.10
2024-02-13T07:50:49.228Z,15.85
2024-02-13T07:52:52.160Z,21.88
2024-02-13T07:54:56.599Z,20.35
2024-02-13T07:56:59.713Z,19.33
2024-02-13T07:59:02.993Z,18.77
2024-02-13T08:01:07.228Z,9.60
2024-02-13T08:03:10.905Z,21.58
2024-02-13T08:05:14.465Z,17.17
2024-02-13T08:07:17.602Z,20.90
2024-02-13T08:09:21.014Z,16.48
2024-02-13T08:11:25.454Z,16.90
2024-02-13T08:13:28.625Z,7.40
2024-02-13T08:15:32.216Z,19.77
2024-02-13T08:17:35.625Z,18.25
2024-02-13T08:19:42.619Z,6.32
2024-02-13T08:21:46.105Z,15.50
2024-02-13T08:23:49.081Z,18.13
2024-02-13T08:25:52.127Z,13.68
2024-02-13T08:27:57.705Z,22.15
2024-02-13T08:30:01.052Z,14.27
2024-02-13T08:32:05.456Z,18.98
2024-02-13T08:34:09.405Z,18.17
2024-02-13T08:36:13.193Z,15.02
2024-02-13T08:38:19.040Z,20.77
2024-02-13T08:40:22.007Z,23.20
2024-02-13T08:42:25.291Z,17.08
2024-02-13T08:44:32.071Z,20.67
2024-02-13T08:46:35.078Z,18.60
2024-02-13T08:48:39.111Z,15.77
2024-02-13T08:50:42.830Z,19.50
2024-02-13T08:52:45.872Z,18.30
2024-02-13T08:54:48.841Z,21.92
2024-02-13T08:56:51.802Z,15.57
2024-02-13T08:58:54.812Z,21.33
2024-02-13T09:00:59.369Z,15.98
2024-02-13T09:03:03.600Z,19.05
2024-02-13T09:05:06.961Z,15.80
2024-02-13T09:07:10.018Z,15.55
2024-02-13T09:09:14.341Z,20.17
2024-02-13T09:11:17.427Z,13.65
2024-02-13T09:13:20.458Z,13.85
2024-02-13T09:15:23.696Z,5.95
2024-02-13T09:17:28.463Z,12.77
2024-02-13T09:19:32.770Z,27.33
2024-02-13T09:21:35.771Z,24.75
2024-02-13T09:23:39.135Z,19.80
2024-02-13T09:25:42.077Z,16.65
2024-02-13T09:27:45.940Z,19.15
2024-02-13T09:29:49.017Z,17.20
2024-02-13T09:31:52.114Z,17.20
2024-02-13T09:33:56.876Z,13.93
2024-02-13T09:36:00.325Z,14.93
2024-02-13T09:38:03.316Z,15.27
2024-02-13T09:40:14.681Z,18.90
2024-02-13T09:42:18.541Z,16.75
2024-02-13T09:44:21.717Z,17.25
2024-02-13T09:46:26.382Z,23.48
2024-02-13T09:48:34.382Z,14.43
2024-02-13T09:50:39.682Z,16.30
2024-02-13T09:52:50.204Z,15.32
2024-02-13T09:54:54.422Z,17.55
2024-02-13T09:56:58.593Z,16.60
2024-02-13T09:59:02.152Z,15.13
2024-02-13T10:01:06.742Z,14.75
2024-02-13T10:03:09.818Z,17.92
2024-02-13T10:05:13.050Z,16.70
2024-02-13T10:07:18.366Z,20.25
2024-02-13T10:09:21.508Z,18.17
2024-02-13T10:11:31.570Z,15.40
2024-02-13T10:13:46.692Z,16.70
2024-02-13T10:15:51.268Z,19.83
2024-02-13T10:17:56.053Z,19.30
2024-02-13T10:19:59.046Z,13.88
2024-02-13T10:22:07.368Z,14.32
2024-02-13T10:24:17.167Z,10.15
2024-02-13T10:26:20.482Z,8.55
2024-02-13T10:28:26.573Z,12.30
2024-02-13T10:30:31.425Z,9.18
2024-02-13T10:32:40.068Z,18.83
2024-02-13T10:34:43.368Z,23.00
2024-02-13T10:36:46.893Z,12.43
2024-02-13T10:38:51.564Z,14.35
2024-02-13T10:40:58.845Z,21.17
2024-02-13T10:43:04.805Z,19.50
2024-02-13T10:45:11.300Z,16.30
2024-02-13T10:47:30.365Z,18.70
2024-02-13T10:49:43.584Z,20.58
2024-02-13T10:51:47.871Z,20.30
2024-02-13T10:53:51.573Z,14.50
2024-02-13T10:55:56.760Z,11.93
2024-02-13T10:58:00.332Z,16.47
2024-02-13T11:00:09.904Z,18.23
2024-02-13T11:02:15.585Z,17.45
2024-02-13T11:04:19.408Z,17.88
2024-02-13T11:06:22.471Z,8.90
2024-02-13T11:08:25.832Z,11.95
2024-02-13T11:10:36.499Z,19.65
2024-02-13T11:12:41.449Z,19.55
2024-02-13T11:14:44.585Z,17.50
2024-02-13T11:16:58.225Z,16.85
2024-02-13T11:19:20.134Z,17.67
2024-02-13T11:23:53.208Z,12.30
2024-02-13T11:26:00.198Z,9.45
2024-02-13T11:28:07.860Z,10.90
2024-02-13T11:30:22.113Z,13.18
2024-02-13T11:32:27.107Z,11.18
2024-02-13T11:34:41.691Z,15.63
2024-02-13T11:36:52.359Z,12.23
2024-02-13T11:38:58.966Z,18.50
2024-02-13T11:41:04.369Z,17.80
2024-02-13T11:43:25.882Z,20.65
2024-02-13T11:45:30.288Z,14.88
2024-02-13T11:47:34.242Z,13.77
2024-02-13T11:49:37.324Z,12.82
2024-02-13T11:51:41.065Z,17.10
2024-02-13T11:53:44.846Z,13.38
2024-02-13T11:55:48.420Z,18.25
2024-02-13T11:57:51.959Z,9.40
2024-02-13T12:00:01.824Z,9.52
2024-02-13T12:02:14.502Z,16.75
2024-02-13T12:04:19.152Z,13.07
2024-02-13T12:06:22.484Z,6.07
2024-02-13T12:08:27.755Z,13.30
2024-02-13T12:10:32.214Z,15.75
2024-02-13T12:12:35.942Z,13.13
2024-02-13T12:14:40.657Z,13.65
2024-02-13T12:16:45.174Z,9.65
2024-02-13T12:18:49.093Z,8.60
2024-02-13T12:20:52.283Z,9.73
2024-02-13T12:22:56.542Z,7.70
2024-02-13T12:25:08.270Z,5.70
2024-02-13T12:27:12.305Z,10.35
2024-02-13T12:29:20.718Z,7.80
2024-02-13T12:31:25.414Z,9.10
2024-02-13T12:33:30.574Z,9.97
2024-02-13T12:35:34.172Z,6.22
2024-02-13T12:37:37.404Z,7.55
2024-02-13T12:39:41.709Z,12.98
2024-02-13T12:41:45.235Z,3.25
2024-02-13T12:43:49.676Z,10.05
2024-02-13T12:45:52.934Z,12.27
2024-02-13T12:47:57.490Z,10.15
2024-02-13T12:50:02.744Z,3.92
2024-02-13T12:52:08.202Z,10.43
2024-02-13T12:54:11.631Z,8.38
2024-02-13T12:56:14.866Z,13.57
2024-02-13T12:58:20.090Z,9.52
2024-02-13T13:00:24.157Z,1.95
2024-02-13T13:02:27.762Z,8.20
2024-02-13T13:04:32.745Z,5.40
2024-02-13T13:06:38.493Z,11.02
2024-02-13T13:08:43.758Z,10.93
2024-02-13T13:10:47.109Z,8.25
2024-02-13T13:12:50.174Z,12.15
2024-02-13T13:14:54.743Z,15.18
2024-02-13T13:16:58.095Z,17.90
2024-02-13T13:19:01.529Z,12.32
2024-02-13T13:21:05.949Z,11.15
2024-02-13T13:23:10.605Z,10.00
2024-02-13T13:25:15.436Z,11.82
2024-02-13T13:27:20.400Z,10.52
2024-02-13T13:29:23.647Z,15.35
2024-02-13T13:31:28.006Z,11.63
2024-02-13T13:33:34.025Z,15.77
2024-02-13T13:35:37.363Z,17.23
2024-02-13T13:37:42.097Z,15.30
2024-02-13T13:39:46.775Z,21.13
2024-02-13T13:41:51.807Z,11.93
2024-02-13T13:43:54.881Z,13.73
2024-02-13T13:45:59.268Z,12.27
2024-02-13T13:48:15.556Z,12.02
2024-02-13T13:50:19.329Z,11.20
2024-02-13T13:52:23.645Z,13.50
2024-02-13T13:54:26.592Z,19.90
2024-02-13T13:56:32.335Z,14.10
2024-02-13T13:58:35.397Z,11.77
2024-02-13T14:00:38.773Z,9.07
2024-02-13T14:02:41.742Z,13.20
2024-02-13T14:04:46.313Z,10.65
2024-02-13T14:06:49.718Z,9.80
2024-02-13T14:08:52.718Z,13.52
2024-02-13T14:10:58.753Z,11.30
2024-02-13T14:13:06.775Z,9.50
2024-02-13T14:15:09.817Z,8.52
2024-02-13T14:17:13.246Z,7.63
2024-02-13T14:19:16.277Z,8.43
2024-02-13T14:21:20.323Z,8.40
2024-02-13T14:23:24.954Z,7.13
2024-02-13T14:25:28.586Z,11.18
2024-02-13T14:27:31.553Z,6.13
2024-02-13T14:29:36.208Z,5.90
2024-02-13T14:31:39.284Z,6.18
2024-02-13T14:33:42.847Z,7.47
2024-02-13T14:35:49.011Z,7.55
2024-02-13T14:37:58.839Z,8.90
2024-02-13T14:40:02.839Z,8.10
2024-02-13T14:42:09.280Z,8.77
2024-02-13T14:44:12.957Z,8.63
2024-02-13T14:46:17.634Z,10.25
2024-02-13T14:48:20.786Z,11.20
2024-02-13T14:50:26.733Z,9.98
2024-02-13T14:52:30.591Z,11.25
2024-02-13T14:54:34.834Z,10.55
2024-02-13T14:56:37.888Z,5.55
2024-02-13T14:58:40.909Z,9.23
2024-02-13T15:00:43.870Z,9.13
2024-02-13T15:02:51.769Z,8.98
2024-02-13T15:04:54.985Z,9.05
2024-02-13T15:07:00.843Z,9.35
2024-02-13T15:09:05.574Z,9.88
2024-02-13T15:11:10.945Z,11.82
2024-02-13T15:13:17.221Z,10.18
2024-02-13T15:15:26.441Z,8.93
2024-02-13T15:17:47.743Z,7.70
2024-02-13T15:19:53.775Z,8.38
2024-02-13T15:21:57.537Z,7.25
2024-02-13T15:24:01.592Z,11.45
2024-02-13T15:26:06.332Z,11.32
2024-02-13T15:28:09.370Z,9.07
2024-02-13T15:30:13.979Z,7.82
2024-02-13T15:32:34.208Z,10.82
2024-02-13T15:34:42.524Z,10.57
2024-02-13T15:37:05.274Z,11.20
2024-02-13T15:39:26.724Z,14.00
2024-02-13T15:41:48.521Z,11.00
2024-02-13T15:44:10.218Z,11.38
2024-02-13T15:46:31.955Z,11.07
2024-02-13T15:48:35.909Z,8.07
2024-02-13T15:50:40.673Z,9.07
2024-02-13T15:52:45.268Z,10.27
2024-02-13T15:54:49.893Z,13.50
2024-02-13T15:56:58.879Z,8.40
2024-02-13T15:59:02.494Z,13.05
2024-02-13T16:01:05.904Z,9.50
2024-02-13T16:03:10.077Z,8.75
2024-02-13T16:05:14.777Z,11.20
2024-02-13T16:07:20.958Z,8.20
2024-02-13T16:09:27.014Z,10.93
2024-02-13T16:11:31.714Z,12.00
2024-02-13T16:13:34.737Z,11.57
2024-02-13T16:15:38.327Z,18.23
2024-02-13T16:17:41.899Z,15.55
2024-02-13T16:19:45.201Z,15.27
2024-02-13T16:21:48.220Z,19.90
2024-02-13T16:23:51.322Z,22.88
2024-02-13T16:25:56.126Z,17.55
2024-02-13T16:28:00.182Z,24.20
2024-02-13T16:30:04.081Z,31.88
2024-02-13T16:34:20.146Z,17.80
2024-02-13T16:36:24.025Z,14.90
2024-02-13T16:38:27.070Z,16.63
2024-02-13T16:40:30.124Z,16.58
2024-02-13T16:42:35.243Z,16.48
2024-02-13T16:44:38.304Z,22.58
2024-02-13T16:46:41.356Z,20.00
2024-02-13T16:48:49.749Z,23.10
2024-02-13T16:50:53.608Z,18.15
2024-02-13T16:52:56.856Z,25.48
2024-02-13T16:54:59.880Z,22.58
2024-02-13T16:57:02.907Z,16.83
2024-02-13T16:59:07.372Z,17.33
2024-02-13T17:01:10.541Z,13.40
2024-02-13T17:03:14.683Z,16.00
2024-02-13T17:05:19.594Z,13.63
2024-02-13T17:07:23.025Z,11.90
2024-02-13T17:09:26.249Z,12.85
2024-02-13T17:11:29.440Z,11.48
2024-02-13T17:13:32.675Z,11.05
2024-02-13T17:15:37.124Z,14.70
2024-02-13T17:17:41.007Z,14.82
2024-02-13T17:19:44.614Z,14.23
2024-02-13T17:21:47.637Z,15.57
2024-02-13T17:23:51.627Z,16.13
2024-02-13T17:25:55.275Z,10.80
2024-02-13T17:27:58.413Z,12.30
2024-02-13T17:30:01.587Z,16.05
2024-02-13T17:32:10.175Z,10.95
2024-02-13T17:36:25.007Z,10.75
2024-02-13T17:38:36.616Z,17.88
2024-02-13T17:40:41.766Z,14.77
2024-02-13T17:42:45.708Z,14.98
2024-02-13T17:44:48.795Z,15.50
2024-02-13T17:46:52.364Z,11.07
2024-02-13T17:48:57.524Z,16.70
2024-02-13T17:51:00.735Z,21.38
2024-02-13T17:53:04.184Z,18.52
2024-02-13T17:55:10.466Z,16.13
2024-02-13T17:57:14.038Z,14.40
2024-02-13T17:59:17.122Z,12.48
2024-02-13T18:01:24.727Z,14.18
2024-02-13T18:03:28.939Z,11.57
2024-02-13T18:05:33.672Z,12.45
2024-02-13T18:07:55.752Z,10.30
2024-02-13T18:09:59.901Z,9.40
2024-02-13T18:12:06.836Z,12.05
2024-02-13T18:14:11.089Z,10.65
2024-02-13T18:16:14.146Z,16.55
2024-02-13T18:18:18.246Z,28.80
2024-02-13T18:20:24.449Z,30.83
2024-02-13T18:22:29.622Z,28.85
2024-02-13T18:24:34.184Z,30.40
2024-02-13T18:26:38.064Z,39.20
2024-02-13T18:28:41.128Z,31.13
2024-02-13T18:30:44.084Z,32.72
2024-02-13T18:32:47.249Z,33.08
2024-02-13T18:34:50.185Z,38.65
2024-02-13T18:36:53.253Z,35.20
2024-02-13T18:38:57.822Z,30.95
2024-02-13T18:41:01.516Z,24.73
2024-02-13T18:43:04.777Z,25.27
2024-02-13T18:45:11.466Z,35.63
2024-02-13T18:47:14.379Z,35.92
2024-02-13T18:49:19.481Z,33.72
2024-02-13T18:51:22.711Z,39.00
2024-02-13T18:53:28.453Z,50.28
2024-02-13T18:55:34.141Z,53.05
2024-02-13T18:57:37.581Z,55.58
2024-02-13T18:59:43.181Z,57.08
2024-02-13T19:01:47.020Z,47.85
2024-02-13T19:03:50.181Z,55.92
2024-02-13T19:05:53.666Z,46.63
2024-02-13T19:07:57.433Z,53.10
2024-02-13T19:10:00.452Z,52.55
2024-02-13T19:12:07.691Z,59.35
2024-02-13T19:14:10.719Z,59.45
2024-02-13T19:16:14.408Z,85.43
2024-02-13T19:18:17.918Z,535.95
2024-02-13T19:20:21.200Z,244.23
2024-02-13T19:22:24.266Z,124.30
2024-02-13T19:24:27.468Z,77.82
2024-02-13T19:26:30.676Z,44.53
2024-02-13T19:28:35.293Z,39.30
2024-02-13T19:30:38.342Z,40.47
2024-02-13T19:32:49.570Z,33.22
2024-02-13T19:34:53.119Z,38.63
2024-02-13T19:36:58.001Z,37.03
2024-02-13T19:39:01.285Z,34.30
2024-02-13T19:41:04.643Z,33.20
2024-02-13T19:43:07.624Z,32.30
2024-02-13T19:45:12.321Z,31.73
2024-02-13T19:47:23.201Z,34.38
2024-02-13T19:49:46.238Z,32.88
2024-02-13T19:52:09.328Z,28.50
2024-02-13T19:54:32.661Z,34.35
2024-02-13T19:56:56.274Z,31.75
2024-02-13T19:59:19.081Z,36.58
2024-02-13T20:01:43.565Z,34.15
2024-02-13T20:04:07.868Z,36.97
2024-02-13T20:06:31.042Z,31.35
2024-02-13T20:08:36.965Z,39.60
2024-02-13T20:10:40.058Z,42.22
2024-02-13T20:12:43.365Z,30.85
2024-02-13T20:14:46.660Z,29.83
2024-02-13T20:16:51.255Z,28.33
2024-02-13T20:18:59.689Z,31.13
2024-02-13T20:21:02.817Z,26.73
2024-02-13T20:23:07.197Z,31.10
2024-02-13T20:25:10.694Z,58.20
2024-02-13T20:27:13.961Z,50.83
2024-02-13T20:29:17.111Z,57.45
2024-02-13T20:31:20.796Z,35.47
2024-02-13T20:33:27.608Z,59.75
2024-02-13T20:35:30.910Z,61.88
2024-02-13T20:37:33.936Z,60.22
2024-02-13T20:39:36.969Z,59.97
2024-02-13T20:41:42.841Z,63.03
2024-02-13T20:43:47.513Z,55.42
2024-02-13T20:45:50.577Z,57.40
2024-02-13T20:47:54.235Z,56.35
2024-02-13T20:50:02.103Z,50.15
2024-02-13T20:52:07.562Z,45.95
2024-02-13T20:54:11.144Z,43.97
2024-02-13T20:56:14.252Z,40.08
2024-02-13T20:58:17.167Z,43.35
2024-02-13T21:00:20.324Z,44.97
2024-02-13T21:02:23.329Z,45.15
2024-02-13T21:04:29.960Z,40.60
2024-02-13T21:06:34.933Z,40.90
2024-02-13T21:08:38.068Z,42.30
2024-02-13T21:10:41.046Z,44.75
2024-02-13T21:12:44.274Z,44.88
2024-02-13T21:14:47.512Z,43.10
2024-02-13T21:16:50.533Z,44.80
2024-02-13T21:18:53.785Z,46.40
2024-02-13T21:21:19.971Z,44.40
2024-02-13T21:23:42.913Z,49.97
2024-02-13T21:25:46.433Z,40.28
2024-02-13T21:27:49.973Z,47.88
2024-02-13T21:29:53.072Z,51.60
2024-02-13T21:31:57.534Z,55.15
2024-02-13T21:34:11.577Z,59.33
2024-02-13T21:36:15.182Z,65.82
2024-02-13T21:38:18.248Z,52.30
2024-02-13T21:40:22.838Z,51.60
2024-02-13T21:42:26.449Z,56.03
2024-02-13T21:44:30.458Z,61.95
2024-02-13T21:46:33.649Z,48.47
2024-02-13T21:48:36.747Z,53.60
2024-02-13T21:50:41.717Z,78.05
2024-02-13T21:52:44.906Z,83.95
2024-02-13T21:54:47.940Z,61.00
2024-02-13T21:56:52.403Z,43.45
2024-02-13T21:58:56.678Z,42.10
2024-02-13T22:00:59.708Z,34.70
2024-02-13T22:03:03.072Z,33.97
2024-02-13T22:05:07.872Z,35.67
2024-02-13T22:07:25.684Z,33.83
2024-02-13T22:09:28.908Z,33.28
2024-02-13T22:11:32.029Z,31.83
2024-02-13T22:13:36.588Z,34.53
2024-02-13T22:15:39.626Z,47.60
2024-02-13T22:17:42.817Z,41.53
2024-02-13T22:19:46.752Z,41.70
2024-02-13T22:21:49.802Z,50.85
2024-02-13T22:23:54.539Z,43.92
2024-02-13T22:26:01.522Z,47.30
2024-02-13T22:28:06.655Z,39.40
2024-02-13T22:30:14.156Z,43.53
2024-02-13T22:32:37.816Z,31.73
2024-02-13T22:34:41.188Z,31.50
2024-02-13T22:36:44.327Z,34.63
2024-02-13T22:38:47.587Z,33.92
2024-02-13T22:40:50.578Z,39.33
2024-02-13T22:42:53.615Z,44.47
2024-02-13T22:44:56.678Z,46.00
2024-02-13T22:47:01.529Z,47.05
2024-02-13T22:49:04.632Z,41.63
2024-02-13T22:51:07.678Z,49.25
2024-02-13T22:53:10.856Z,40.63
2024-02-13T22:55:14.117Z,41.83
2024-02-13T22:57:17.658Z,38.30
2024-02-13T22:59:21.421Z,40.40
2024-02-13T23:01:25.325Z,37.53
2024-02-13T23:03:30.061Z,39.80
2024-02-13T23:05:33.337Z,36.20
2024-02-13T23:07:37.223Z,38.05
2024-02-13T23:09:40.336Z,38.28
2024-02-13T23:11:43.410Z,40.25
2024-02-13T23:13:50.881Z,38.05
2024-02-13T23:15:54.647Z,38.05
2024-02-13T23:17:58.622Z,35.95
2024-02-13T23:20:03.321Z,37.85
2024-02-13T23:22:07.147Z,46.65
2024-02-13T23:24:12.454Z,42.10
2024-02-13T23:28:18.245Z,36.88
2024-02-13T23:30:21.446Z,32.72
2024-02-13T23:32:24.392Z,39.58
2024-02-13T23:34:27.713Z,40.50
2024-02-13T23:36:32.148Z,37.35
2024-02-13T23:38:35.171Z,38.83
2024-02-13T23:40:38.141Z,34.17
2024-02-13T23:42:42.031Z,38.53
2024-02-13T23:44:45.784Z,35.92
2024-02-13T23:46:48.881Z,40.83
2024-02-13T23:48:52.866Z,40.08
2024-02-13T23:50:56.225Z,34.60
2024-02-13T23:53:00.809Z,42.67
2024-02-13T23:55:06.905Z,40.78
2024-02-13T23:57:11.101Z,37.70
2024-02-13T23:59:14.150Z,40.05
